createdAt,value
2022-07-30T00:00:19.687Z,0.00
2022-07-30T00:01:15.791Z,0.00
2022-07-30T00:02:15.727Z,0.00
2022-07-30T00:03:15.710Z,0.00
2022-07-30T00:04:15.600Z,0.00
2022-07-30T00:05:15.554Z,0.00
2022-07-30T00:06:15.506Z,0.00
2022-07-30T00:07:15.464Z,0.00
2022-07-30T00:08:15.414Z,0.00
2022-07-30T00:09:15.366Z,0.00
2022-07-30T00:10:15.322Z,0.00
2022-07-30T00:11:15.280Z,0.00
2022-07-30T00:12:15.239Z,0.00
2022-07-30T00:13:15.180Z,0.00
2022-07-30T00:14:15.134Z,0.00
2022-07-30T00:15:15.088Z,0.00
2022-07-30T00:16:15.085Z,0.00
2022-07-30T00:17:15.002Z,0.00
2022-07-30T00:18:14.947Z,0.00
2022-07-30T00:19:14.905Z,0.00
2022-07-30T00:20:14.854Z,0.00
2022-07-30T00:21:32.627Z,0.00
2022-07-30T00:22:14.761Z,0.00
2022-07-30T00:23:14.716Z,0.00
2022-07-30T00:24:14.668Z,0.00
2022-07-30T00:25:14.623Z,0.00
2022-07-30T00:26:14.577Z,0.00
2022-07-30T00:27:14.538Z,0.00
2022-07-30T00:28:14.482Z,0.00
2022-07-30T00:29:14.438Z,0.00
2022-07-30T00:30:14.393Z,0.00
2022-07-30T00:31:14.381Z,0.00
2022-07-30T00:32:14.299Z,0.00
2022-07-30T00:33:14.250Z,0.00
2022-07-30T00:34:14.204Z,0.00
2022-07-30T00:35:14.157Z,0.00
2022-07-30T00:36:14.110Z,0.00
2022-07-30T00:37:14.066Z,0.00
2022-07-30T00:38:14.019Z,0.00
2022-07-30T00:39:13.971Z,0.00
2022-07-30T00:40:13.926Z,0.00
2022-07-30T00:41:15.437Z,0.00
2022-07-30T00:42:13.833Z,0.00
2022-07-30T00:43:13.785Z,0.00
2022-07-30T00:44:13.737Z,0.00
2022-07-30T00:45:13.693Z,0.00
2022-07-30T00:46:13.702Z,0.00
2022-07-30T00:47:13.598Z,0.00
2022-07-30T00:48:13.551Z,0.00
2022-07-30T00:49:13.558Z,0.00
2022-07-30T00:50:13.462Z,0.00
2022-07-30T00:51:13.414Z,0.00
2022-07-30T00:52:13.368Z,0.00
2022-07-30T00:53:13.320Z,0.00
2022-07-30T00:54:13.271Z,0.00
2022-07-30T00:55:13.227Z,0.00
2022-07-30T00:56:13.198Z,0.00
2022-07-30T00:57:13.134Z,0.00
2022-07-30T00:58:13.087Z,0.00
2022-07-30T00:59:13.042Z,0.00
2022-07-30T01:00:13.006Z,0.00
2022-07-30T01:01:12.992Z,0.00
2022-07-30T01:02:12.946Z,0.00
2022-07-30T01:03:12.853Z,0.00
2022-07-30T01:04:12.806Z,0.00
2022-07-30T01:05:12.759Z,0.00
2022-07-30T01:06:14.046Z,0.00
2022-07-30T01:07:12.668Z,0.00
2022-07-30T01:08:12.618Z,0.00
2022-07-30T01:09:12.575Z,0.00
2022-07-30T01:10:12.529Z,0.00
2022-07-30T01:11:12.501Z,0.00
2022-07-30T01:12:12.434Z,0.00
2022-07-30T01:13:12.388Z,0.00
2022-07-30T01:14:12.338Z,0.00
2022-07-30T01:15:12.294Z,0.00
2022-07-30T01:16:12.320Z,0.00
2022-07-30T01:17:12.200Z,0.00
2022-07-30T01:18:12.154Z,0.00
2022-07-30T01:19:12.106Z,0.00
2022-07-30T01:20:12.059Z,0.00
2022-07-30T01:21:12.015Z,0.00
2022-07-30T01:22:11.968Z,0.00
2022-07-30T01:23:11.927Z,0.00
2022-07-30T01:24:11.878Z,0.00
2022-07-30T01:25:11.831Z,0.00
2022-07-30T01:26:11.779Z,0.00
2022-07-30T01:27:34.819Z,0.00
2022-07-30T01:28:11.687Z,0.00
2022-07-30T01:29:11.642Z,0.00
2022-07-30T01:30:11.593Z,0.00
2022-07-30T01:31:11.565Z,0.00
2022-07-30T01:32:11.504Z,0.00
2022-07-30T01:33:11.452Z,0.00
2022-07-30T01:34:11.407Z,0.00
2022-07-30T01:35:11.362Z,0.00
2022-07-30T01:36:11.315Z,0.00
2022-07-30T01:37:11.270Z,0.00
2022-07-30T01:38:11.221Z,0.00
2022-07-30T01:39:11.173Z,0.00
2022-07-30T01:40:11.131Z,0.00
2022-07-30T01:41:11.085Z,0.00
2022-07-30T01:42:11.034Z,0.00
2022-07-30T01:43:10.990Z,0.00
2022-07-30T01:44:10.941Z,0.00
2022-07-30T01:45:10.893Z,0.00
2022-07-30T01:46:10.896Z,0.00
2022-07-30T01:47:10.800Z,0.00
2022-07-30T01:48:10.753Z,0.00
2022-07-30T01:49:10.790Z,0.00
2022-07-30T01:50:11.016Z,0.00
2022-07-30T01:51:10.613Z,0.00
2022-07-30T01:52:10.574Z,0.00
2022-07-30T01:53:10.522Z,0.00
2022-07-30T01:54:10.482Z,0.00
2022-07-30T01:55:11.618Z,0.00
2022-07-30T01:56:10.865Z,0.00
2022-07-30T01:57:10.333Z,0.00
2022-07-30T01:58:10.297Z,0.00
2022-07-30T01:59:10.238Z,0.00
2022-07-30T02:00:10.194Z,0.00
2022-07-30T02:01:10.178Z,0.00
2022-07-30T02:02:10.101Z,0.00
2022-07-30T02:04:41.667Z,0.00
2022-07-30T02:05:41.611Z,0.00
2022-07-30T02:07:34.513Z,0.00
2022-07-30T02:08:34.435Z,0.00
2022-07-30T02:10:27.308Z,0.00
2022-07-30T02:11:27.251Z,0.00
2022-07-30T02:13:20.125Z,0.00
2022-07-30T02:14:20.073Z,0.00
2022-07-30T02:16:12.999Z,0.00
2022-07-30T02:17:18.413Z,0.00
2022-07-30T02:19:06.753Z,0.00
2022-07-30T02:20:09.781Z,0.00
2022-07-30T02:21:07.632Z,0.00
2022-07-30T02:22:06.826Z,0.00
2022-07-30T02:23:06.070Z,0.00
2022-07-30T02:24:06.023Z,0.00
2022-07-30T02:25:05.974Z,0.00
2022-07-30T02:26:05.928Z,0.00
2022-07-30T02:27:05.883Z,0.00
2022-07-30T02:28:05.835Z,0.00
2022-07-30T02:29:09.592Z,0.00
2022-07-30T02:30:05.746Z,0.00
2022-07-30T02:31:17.470Z,0.00
2022-07-30T02:32:05.649Z,0.00
2022-07-30T02:33:05.600Z,0.00
2022-07-30T02:34:05.557Z,0.00
2022-07-30T02:35:05.508Z,0.00
2022-07-30T02:36:05.461Z,0.00
2022-07-30T02:37:05.414Z,0.00
2022-07-30T02:38:05.374Z,0.00
2022-07-30T02:39:05.318Z,0.00
2022-07-30T02:40:05.276Z,0.00
2022-07-30T02:41:05.225Z,0.00
2022-07-30T02:42:05.183Z,0.00
2022-07-30T02:43:05.130Z,0.00
2022-07-30T02:44:05.086Z,0.00
2022-07-30T02:45:05.039Z,0.00
2022-07-30T02:46:04.992Z,0.00
2022-07-30T02:47:05.237Z,0.00
2022-07-30T02:48:04.902Z,0.00
2022-07-30T02:49:04.868Z,0.00
2022-07-30T02:50:04.804Z,0.00
2022-07-30T02:51:04.760Z,0.00
2022-07-30T02:52:04.714Z,0.00
2022-07-30T02:53:04.664Z,0.00
2022-07-30T02:54:04.620Z,0.00
2022-07-30T02:55:04.569Z,0.00
2022-07-30T02:56:04.525Z,0.00
2022-07-30T02:57:04.611Z,0.00
2022-07-30T02:58:04.429Z,0.00
2022-07-30T02:59:04.380Z,0.00
2022-07-30T03:00:04.339Z,0.00
2022-07-30T03:01:04.343Z,0.00
2022-07-30T03:02:04.317Z,0.00
2022-07-30T03:03:04.195Z,0.00
2022-07-30T03:04:04.149Z,0.00
2022-07-30T03:05:04.100Z,0.00
2022-07-30T03:06:04.055Z,0.00
2022-07-30T03:07:08.205Z,0.00
2022-07-30T03:08:24.952Z,0.00
2022-07-30T03:09:03.912Z,0.00
2022-07-30T03:11:35.480Z,0.00
2022-07-30T03:12:35.428Z,0.00
2022-07-30T03:14:28.299Z,0.00
2022-07-30T03:15:28.241Z,0.00
2022-07-30T03:17:21.113Z,0.00
2022-07-30T03:18:21.060Z,0.00
2022-07-30T03:20:14.419Z,0.00
2022-07-30T03:21:13.878Z,0.00
2022-07-30T03:23:06.754Z,0.00
2022-07-30T03:24:06.698Z,0.00
2022-07-30T03:25:59.574Z,0.00
2022-07-30T03:26:59.812Z,0.00
2022-07-30T03:28:52.391Z,0.00
2022-07-30T03:29:52.339Z,0.00
2022-07-30T03:31:45.334Z,0.00
2022-07-30T03:32:45.158Z,0.00
2022-07-30T03:34:38.039Z,0.00
2022-07-30T03:35:37.981Z,0.00
2022-07-30T03:37:30.852Z,0.00
2022-07-30T03:38:30.801Z,0.00
2022-07-30T03:39:30.751Z,0.00
2022-07-30T03:40:30.705Z,0.00
2022-07-30T03:41:30.655Z,0.00
2022-07-30T03:42:30.610Z,0.00
2022-07-30T03:43:33.805Z,0.00
2022-07-30T03:44:30.518Z,0.00
2022-07-30T03:45:30.467Z,0.00
2022-07-30T03:46:30.452Z,0.00
2022-07-30T03:47:30.374Z,0.00
2022-07-30T03:48:30.331Z,0.00
2022-07-30T03:49:30.281Z,0.00
2022-07-30T03:50:30.235Z,0.00
2022-07-30T03:51:32.836Z,0.00
2022-07-30T03:52:30.140Z,0.00
2022-07-30T03:53:30.091Z,0.00
2022-07-30T03:54:30.052Z,0.00
2022-07-30T03:55:29.998Z,0.00
2022-07-30T03:56:29.951Z,0.00
2022-07-30T03:57:29.903Z,0.00
2022-07-30T03:58:35.777Z,0.00
2022-07-30T03:59:52.877Z,0.00
2022-07-30T04:00:29.763Z,0.00
2022-07-30T04:01:29.764Z,0.00
2022-07-30T04:02:29.668Z,0.00
2022-07-30T04:03:29.664Z,4.00
2022-07-30T04:04:29.574Z,4.00
2022-07-30T04:05:41.499Z,4.00
2022-07-30T04:06:29.481Z,4.00
2022-07-30T04:07:29.435Z,4.00
2022-07-30T04:08:29.387Z,4.00
2022-07-30T04:09:29.338Z,4.00
2022-07-30T04:10:29.294Z,0.00
2022-07-30T04:11:40.911Z,0.00
2022-07-30T04:12:29.241Z,4.00
2022-07-30T04:13:29.152Z,4.00
2022-07-30T04:14:29.103Z,4.00
2022-07-30T04:16:06.037Z,4.00
2022-07-30T04:16:39.498Z,4.00
2022-07-30T04:17:28.984Z,4.00
2022-07-30T04:18:28.918Z,4.00
2022-07-30T04:19:28.874Z,4.00
2022-07-30T04:20:28.824Z,8.00
2022-07-30T04:21:28.773Z,8.00
2022-07-30T04:22:28.726Z,4.00
2022-07-30T04:23:28.679Z,4.00
2022-07-30T04:24:28.635Z,4.00
2022-07-30T04:25:28.584Z,4.00
2022-07-30T04:26:28.538Z,8.00
2022-07-30T04:27:28.490Z,8.00
2022-07-30T04:28:28.444Z,4.00
2022-07-30T04:29:28.395Z,4.00
2022-07-30T04:30:28.351Z,8.00
2022-07-30T04:31:28.522Z,8.00
2022-07-30T04:32:28.257Z,8.00
2022-07-30T04:33:42.883Z,4.00
2022-07-30T04:34:28.162Z,8.00
2022-07-30T04:35:51.332Z,8.00
2022-07-30T04:36:28.070Z,8.00
2022-07-30T04:37:28.020Z,8.00
2022-07-30T04:38:27.972Z,12.00
2022-07-30T04:39:27.923Z,8.00
2022-07-30T04:40:27.879Z,8.00
2022-07-30T04:41:27.829Z,8.00
2022-07-30T04:42:27.782Z,8.00
2022-07-30T04:43:27.735Z,8.00
2022-07-30T04:44:27.688Z,12.00
2022-07-30T04:45:27.662Z,12.00
2022-07-30T04:46:27.613Z,12.00
2022-07-30T04:47:27.545Z,8.00
2022-07-30T04:48:27.500Z,8.00
2022-07-30T04:49:27.489Z,12.00
2022-07-30T04:50:28.451Z,12.00
2022-07-30T04:51:27.356Z,12.00
2022-07-30T04:52:27.313Z,12.00
2022-07-30T04:53:27.263Z,12.00
2022-07-30T04:54:27.217Z,12.00
2022-07-30T04:55:27.168Z,12.00
2022-07-30T04:56:27.123Z,12.00
2022-07-30T04:57:27.072Z,12.00
2022-07-30T04:58:27.028Z,12.00
2022-07-30T04:59:26.979Z,12.00
2022-07-30T05:00:26.953Z,12.00
2022-07-30T05:01:37.113Z,20.00
2022-07-30T05:02:26.838Z,24.00
2022-07-30T05:03:26.793Z,36.00
2022-07-30T05:04:26.745Z,36.00
2022-07-30T05:05:26.784Z,40.00
2022-07-30T05:06:26.652Z,40.00
2022-07-30T05:07:26.602Z,40.00
2022-07-30T05:08:26.555Z,40.00
2022-07-30T05:09:26.507Z,40.00
2022-07-30T05:10:26.464Z,44.00
2022-07-30T05:11:26.414Z,44.00
2022-07-30T05:12:26.366Z,44.00
2022-07-30T05:13:27.530Z,44.00
2022-07-30T05:14:26.277Z,44.00
2022-07-30T05:15:36.246Z,44.00
2022-07-30T05:16:26.204Z,44.00
2022-07-30T05:17:26.127Z,48.00
2022-07-30T05:18:26.083Z,44.00
2022-07-30T05:19:26.036Z,44.00
2022-07-30T05:20:25.988Z,44.00
2022-07-30T05:21:25.938Z,40.00
2022-07-30T05:22:25.893Z,44.00
2022-07-30T05:23:25.843Z,40.00
2022-07-30T05:24:25.799Z,40.00
2022-07-30T05:25:25.749Z,44.00
2022-07-30T05:26:27.639Z,40.00
2022-07-30T05:27:25.660Z,40.00
2022-07-30T05:28:25.611Z,40.00
2022-07-30T05:29:25.559Z,40.00
2022-07-30T05:30:27.359Z,36.00
2022-07-30T05:31:25.511Z,40.00
2022-07-30T05:32:25.621Z,40.00
2022-07-30T05:33:40.791Z,40.00
2022-07-30T05:34:25.331Z,40.00
2022-07-30T05:35:25.275Z,40.00
2022-07-30T05:36:25.230Z,40.00
2022-07-30T05:37:25.184Z,36.00
2022-07-30T05:38:25.136Z,36.00
2022-07-30T05:39:25.086Z,40.00
2022-07-30T05:40:25.041Z,40.00
2022-07-30T05:41:32.908Z,40.00
2022-07-30T05:42:24.946Z,40.00
2022-07-30T05:43:24.897Z,36.00
2022-07-30T05:44:24.851Z,36.00
2022-07-30T05:45:24.803Z,36.00
2022-07-30T05:46:24.790Z,36.00
2022-07-30T05:47:24.744Z,36.00
2022-07-30T05:48:24.662Z,40.00
2022-07-30T05:49:24.668Z,40.00
2022-07-30T05:50:24.567Z,40.00
2022-07-30T05:51:24.520Z,36.00
2022-07-30T05:52:24.473Z,36.00
2022-07-30T05:54:56.044Z,40.00
2022-07-30T05:55:55.990Z,40.00
2022-07-30T05:57:48.853Z,40.00
2022-07-30T05:58:48.808Z,40.00
2022-07-30T06:00:41.679Z,44.00
2022-07-30T06:01:41.762Z,40.00
2022-07-30T06:03:34.492Z,44.00
2022-07-30T06:04:34.465Z,44.00
2022-07-30T06:06:27.315Z,44.00
2022-07-30T06:07:27.257Z,44.00
2022-07-30T06:09:22.532Z,44.00
2022-07-30T06:10:20.074Z,48.00
2022-07-30T06:12:12.949Z,44.00
2022-07-30T06:13:12.892Z,48.00
2022-07-30T06:15:07.271Z,48.00
2022-07-30T06:16:07.277Z,48.00
2022-07-30T06:18:01.917Z,48.00
2022-07-30T06:19:00.029Z,48.00
2022-07-30T06:20:52.910Z,48.00
2022-07-30T06:22:05.609Z,48.00
2022-07-30T06:23:45.735Z,52.00
2022-07-30T06:24:45.673Z,52.00
2022-07-30T06:26:38.544Z,52.00
2022-07-30T06:27:39.888Z,52.00
2022-07-30T06:29:31.363Z,52.00
2022-07-30T06:30:31.641Z,52.00
2022-07-30T06:32:24.182Z,56.00
2022-07-30T06:33:24.127Z,52.00
2022-07-30T06:35:17.004Z,56.00
2022-07-30T06:36:16.944Z,56.00
2022-07-30T06:38:09.818Z,56.00
2022-07-30T06:39:09.766Z,56.00
2022-07-30T06:41:04.451Z,60.00
2022-07-30T06:42:02.583Z,56.00
2022-07-30T06:43:55.460Z,60.00
2022-07-30T06:44:55.427Z,60.00
2022-07-30T06:46:48.277Z,60.00
2022-07-30T06:47:48.220Z,60.00
2022-07-30T06:49:41.101Z,64.00
2022-07-30T06:50:41.041Z,64.00
2022-07-30T06:52:33.913Z,60.00
2022-07-30T06:53:33.859Z,64.00
2022-07-30T06:55:26.746Z,64.00
2022-07-30T06:56:26.689Z,64.00
2022-07-30T06:58:25.378Z,64.00
2022-07-30T06:59:19.513Z,64.00
2022-07-30T07:01:12.409Z,64.00
2022-07-30T07:02:12.333Z,68.00
2022-07-30T07:04:05.257Z,64.00
2022-07-30T07:05:05.152Z,68.00
2022-07-30T07:06:58.454Z,68.00
2022-07-30T07:07:59.601Z,68.00
2022-07-30T07:09:50.848Z,68.00
2022-07-30T07:10:50.790Z,68.00
2022-07-30T07:12:43.664Z,72.00
2022-07-30T07:13:43.611Z,68.00
2022-07-30T07:15:37.611Z,68.00
2022-07-30T07:16:36.525Z,68.00
2022-07-30T07:18:29.306Z,72.00
2022-07-30T07:20:01.385Z,68.00
2022-07-30T07:21:22.115Z,72.00
2022-07-30T07:22:22.064Z,72.00
2022-07-30T07:24:14.939Z,72.00
2022-07-30T07:25:14.886Z,76.00
2022-07-30T07:27:07.758Z,72.00
2022-07-30T07:28:11.090Z,76.00
2022-07-30T07:30:04.505Z,76.00
2022-07-30T07:31:00.566Z,76.00
2022-07-30T07:32:53.394Z,72.00
2022-07-30T07:33:53.342Z,76.00
2022-07-30T07:35:49.718Z,76.00
2022-07-30T07:36:46.164Z,76.00
2022-07-30T07:38:39.038Z,80.00
2022-07-30T07:39:42.204Z,80.00
2022-07-30T07:41:31.855Z,76.00
2022-07-30T07:42:31.799Z,76.00
2022-07-30T07:44:24.677Z,76.00
2022-07-30T07:45:24.623Z,76.00
2022-07-30T07:47:17.498Z,80.00
2022-07-30T07:48:17.438Z,80.00
2022-07-30T07:50:10.349Z,80.00
2022-07-30T07:51:10.293Z,80.00
2022-07-30T07:53:03.173Z,80.00
2022-07-30T07:54:20.560Z,80.00
2022-07-30T07:55:57.233Z,80.00
2022-07-30T07:56:55.953Z,84.00
2022-07-30T07:58:48.810Z,84.00
2022-07-30T07:59:48.835Z,84.00
2022-07-30T08:01:41.670Z,84.00
2022-07-30T08:02:41.630Z,84.00
2022-07-30T08:04:34.451Z,84.00
2022-07-30T08:06:00.849Z,84.00
2022-07-30T08:07:27.265Z,84.00
2022-07-30T08:08:27.215Z,84.00
2022-07-30T08:10:20.089Z,84.00
2022-07-30T08:11:20.033Z,84.00
2022-07-30T08:13:48.169Z,88.00
2022-07-30T08:14:12.850Z,84.00
2022-07-30T08:16:05.740Z,88.00
2022-07-30T08:17:06.372Z,84.00
2022-07-30T08:18:58.564Z,88.00
2022-07-30T08:19:58.506Z,80.00
2022-07-30T08:21:51.366Z,88.00
2022-07-30T08:22:51.316Z,88.00
2022-07-30T08:24:44.192Z,88.00
2022-07-30T08:25:44.136Z,88.00
2022-07-30T08:27:37.013Z,88.00
2022-07-30T08:28:36.972Z,88.00
2022-07-30T08:30:29.856Z,88.00
2022-07-30T08:31:29.775Z,92.00
2022-07-30T08:33:22.648Z,92.00
2022-07-30T08:34:25.745Z,76.00
2022-07-30T08:36:15.472Z,96.00
2022-07-30T08:37:15.416Z,80.00
2022-07-30T08:38:15.375Z,92.00
2022-07-30T08:39:15.322Z,92.00
2022-07-30T08:40:15.275Z,92.00
2022-07-30T08:41:15.224Z,96.00
2022-07-30T08:42:15.180Z,88.00
2022-07-30T08:43:15.133Z,56.00
2022-07-30T08:44:15.085Z,100.00
2022-07-30T08:45:15.040Z,96.00
2022-07-30T08:46:14.988Z,100.00
2022-07-30T08:47:14.942Z,96.00
2022-07-30T08:48:16.666Z,96.00
2022-07-30T08:49:14.850Z,84.00
2022-07-30T08:50:17.005Z,104.00
2022-07-30T08:51:14.752Z,104.00
2022-07-30T08:52:14.705Z,108.00
2022-07-30T08:53:42.489Z,100.00
2022-07-30T08:54:14.610Z,104.00
2022-07-30T08:55:14.563Z,104.00
2022-07-30T08:56:14.517Z,112.00
2022-07-30T08:57:14.476Z,112.00
2022-07-30T08:58:14.419Z,108.00
2022-07-30T08:59:14.374Z,108.00
2022-07-30T09:00:14.329Z,104.00
2022-07-30T09:01:14.290Z,112.00
2022-07-30T09:02:14.231Z,112.00
2022-07-30T09:03:14.187Z,124.00
2022-07-30T09:04:14.141Z,124.00
2022-07-30T09:05:14.097Z,116.00
2022-07-30T09:06:14.041Z,116.00
2022-07-30T09:07:14.003Z,116.00
2022-07-30T09:08:13.953Z,116.00
2022-07-30T09:09:13.899Z,116.00
2022-07-30T09:10:13.850Z,116.00
2022-07-30T09:11:13.804Z,112.00
2022-07-30T09:12:13.760Z,120.00
2022-07-30T09:13:13.711Z,116.00
2022-07-30T09:14:13.661Z,128.00
2022-07-30T09:15:13.615Z,120.00
2022-07-30T09:16:13.608Z,108.00
2022-07-30T09:17:13.520Z,60.00
2022-07-30T09:18:13.473Z,48.00
2022-07-30T09:19:13.425Z,48.00
2022-07-30T09:20:13.379Z,56.00
2022-07-30T09:21:13.332Z,104.00
2022-07-30T09:22:13.285Z,76.00
2022-07-30T09:23:13.240Z,56.00
2022-07-30T09:24:13.189Z,48.00
2022-07-30T09:25:13.147Z,48.00
2022-07-30T09:26:13.094Z,104.00
2022-07-30T09:27:13.046Z,112.00
2022-07-30T09:28:16.051Z,116.00
2022-07-30T09:29:12.953Z,132.00
2022-07-30T09:30:12.907Z,64.00
2022-07-30T09:31:12.858Z,60.00
2022-07-30T09:32:13.498Z,56.00
2022-07-30T09:33:12.761Z,52.00
2022-07-30T09:34:12.716Z,52.00
2022-07-30T09:35:12.678Z,52.00
2022-07-30T09:36:12.627Z,60.00
2022-07-30T09:37:12.915Z,76.00
2022-07-30T09:38:13.504Z,104.00
2022-07-30T09:39:12.478Z,52.00
2022-07-30T09:40:12.433Z,48.00
2022-07-30T09:41:29.026Z,100.00
2022-07-30T09:42:12.338Z,68.00
2022-07-30T09:43:12.290Z,120.00
2022-07-30T09:44:12.243Z,124.00
2022-07-30T09:45:12.195Z,120.00
2022-07-30T09:46:12.149Z,120.00
2022-07-30T09:47:12.107Z,132.00
2022-07-30T09:48:12.054Z,136.00
2022-07-30T09:49:12.039Z,132.00
2022-07-30T09:50:11.961Z,136.00
2022-07-30T09:51:15.972Z,116.00
2022-07-30T09:52:11.865Z,124.00
2022-07-30T09:53:12.380Z,100.00
2022-07-30T09:54:11.769Z,108.00
2022-07-30T09:55:11.721Z,108.00
2022-07-30T09:56:11.677Z,108.00
2022-07-30T09:57:22.662Z,112.00
2022-07-30T09:58:13.024Z,112.00
2022-07-30T10:00:11.486Z,148.00
2022-07-30T10:01:11.437Z,152.00
2022-07-30T10:02:11.393Z,136.00
2022-07-30T10:03:12.659Z,120.00
2022-07-30T10:04:11.296Z,80.00
2022-07-30T10:05:14.188Z,84.00
2022-07-30T10:06:11.701Z,104.00
2022-07-30T10:07:11.155Z,116.00
2022-07-30T10:08:16.298Z,112.00
2022-07-30T10:09:13.639Z,120.00
2022-07-30T10:10:11.016Z,116.00
2022-07-30T10:11:10.966Z,120.00
2022-07-30T10:12:11.143Z,124.00
2022-07-30T10:13:10.868Z,124.00
2022-07-30T10:14:10.826Z,64.00
2022-07-30T10:15:10.775Z,116.00
2022-07-30T10:16:10.729Z,120.00
2022-07-30T10:17:10.683Z,80.00
2022-07-30T10:18:10.636Z,124.00
2022-07-30T10:19:15.946Z,128.00
2022-07-30T10:20:10.544Z,128.00
2022-07-30T10:21:10.491Z,84.00
2022-07-30T10:22:10.445Z,80.00
2022-07-30T10:23:10.396Z,92.00
2022-07-30T10:24:10.352Z,116.00
2022-07-30T10:25:16.111Z,92.00
2022-07-30T10:26:10.256Z,68.00
2022-07-30T10:27:10.210Z,60.00
2022-07-30T10:28:10.161Z,76.00
2022-07-30T10:29:12.792Z,140.00
2022-07-30T10:30:12.905Z,156.00
2022-07-30T10:31:47.115Z,128.00
2022-07-30T10:32:09.973Z,88.00
2022-07-30T10:33:34.193Z,80.00
2022-07-30T10:34:09.878Z,72.00
2022-07-30T10:35:09.830Z,72.00
2022-07-30T10:36:09.786Z,148.00
2022-07-30T10:37:09.735Z,144.00
2022-07-30T10:38:09.691Z,132.00
2022-07-30T10:39:09.643Z,144.00
2022-07-30T10:40:09.595Z,140.00
2022-07-30T10:41:09.554Z,72.00
2022-07-30T10:42:09.501Z,68.00
2022-07-30T10:43:09.462Z,88.00
2022-07-30T10:44:09.407Z,152.00
2022-07-30T10:45:09.364Z,180.00
2022-07-30T10:46:10.498Z,160.00
2022-07-30T10:47:10.471Z,156.00
2022-07-30T10:48:09.217Z,156.00
2022-07-30T10:49:12.637Z,156.00
2022-07-30T10:50:10.517Z,164.00
2022-07-30T10:51:09.075Z,92.00
2022-07-30T10:52:09.031Z,100.00
2022-07-30T10:53:08.981Z,140.00
2022-07-30T10:54:08.936Z,88.00
2022-07-30T10:55:08.887Z,124.00
2022-07-30T10:56:08.841Z,72.00
2022-07-30T10:57:32.079Z,80.00
2022-07-30T10:58:08.746Z,84.00
2022-07-30T10:59:08.702Z,152.00
2022-07-30T11:00:08.651Z,80.00
2022-07-30T11:01:18.506Z,168.00
2022-07-30T11:02:08.566Z,180.00
2022-07-30T11:03:14.921Z,188.00
2022-07-30T11:04:08.476Z,196.00
2022-07-30T11:05:08.430Z,204.00
2022-07-30T11:06:08.368Z,204.00
2022-07-30T11:07:08.321Z,208.00
2022-07-30T11:08:08.275Z,204.00
2022-07-30T11:09:08.225Z,208.00
2022-07-30T11:10:09.121Z,204.00
2022-07-30T11:11:19.146Z,204.00
2022-07-30T11:12:08.084Z,208.00
2022-07-30T11:13:08.039Z,220.00
2022-07-30T11:14:08.000Z,240.00
2022-07-30T11:15:18.430Z,232.00
2022-07-30T11:16:07.897Z,240.00
2022-07-30T11:17:07.850Z,244.00
2022-07-30T11:18:12.524Z,252.00
2022-07-30T11:19:55.161Z,176.00
2022-07-30T11:20:11.823Z,128.00
2022-07-30T11:21:07.681Z,124.00
2022-07-30T11:22:07.614Z,164.00
2022-07-30T11:23:07.570Z,96.00
2022-07-30T11:24:07.550Z,84.00
2022-07-30T11:25:13.033Z,84.00
2022-07-30T11:26:07.426Z,88.00
2022-07-30T11:27:07.376Z,92.00
2022-07-30T11:28:07.335Z,108.00
2022-07-30T11:29:07.284Z,164.00
2022-07-30T11:30:07.242Z,448.00
2022-07-30T11:31:10.338Z,164.00
2022-07-30T11:32:07.146Z,520.00
2022-07-30T11:33:07.095Z,116.00
2022-07-30T11:34:07.050Z,104.00
2022-07-30T11:35:07.001Z,1460.00
2022-07-30T11:36:06.955Z,1696.00
2022-07-30T11:37:18.660Z,316.00
2022-07-30T11:38:06.975Z,1816.00
2022-07-30T11:39:07.546Z,1704.00
2022-07-30T11:40:06.768Z,1508.00
2022-07-30T11:41:06.719Z,1364.00
2022-07-30T11:42:06.673Z,1236.00
2022-07-30T11:43:06.625Z,1080.00
2022-07-30T11:44:06.579Z,904.00
2022-07-30T11:45:06.530Z,904.00
2022-07-30T11:46:06.486Z,888.00
2022-07-30T11:47:06.437Z,600.00
2022-07-30T11:48:06.390Z,556.00
2022-07-30T11:49:06.407Z,576.00
2022-07-30T11:50:06.300Z,776.00
2022-07-30T11:51:06.251Z,896.00
2022-07-30T11:52:06.207Z,588.00
2022-07-30T11:53:06.155Z,712.00
2022-07-30T11:54:06.113Z,876.00
2022-07-30T11:55:06.062Z,1208.00
2022-07-30T11:56:06.018Z,1452.00
2022-07-30T11:57:05.969Z,1892.00
2022-07-30T11:58:05.940Z,2384.00
2022-07-30T11:59:05.874Z,2656.00
2022-07-30T12:00:05.830Z,848.00
2022-07-30T12:01:09.192Z,120.00
2022-07-30T12:02:06.116Z,316.00
2022-07-30T12:03:05.692Z,132.00
2022-07-30T12:04:05.647Z,156.00
2022-07-30T12:05:05.597Z,1232.00
2022-07-30T12:06:05.551Z,908.00
2022-07-30T12:07:05.597Z,284.00
2022-07-30T12:08:05.459Z,336.00
2022-07-30T12:09:05.406Z,692.00
2022-07-30T12:10:05.362Z,456.00
2022-07-30T12:11:05.323Z,440.00
2022-07-30T12:12:05.267Z,604.00
2022-07-30T12:13:05.222Z,632.00
2022-07-30T12:14:05.174Z,648.00
2022-07-30T12:15:05.138Z,664.00
2022-07-30T12:16:05.080Z,656.00
2022-07-30T12:17:05.397Z,656.00
2022-07-30T12:18:25.424Z,144.00
2022-07-30T12:19:04.942Z,176.00
2022-07-30T12:20:04.894Z,444.00
2022-07-30T12:21:04.845Z,156.00
2022-07-30T12:22:04.802Z,372.00
2022-07-30T12:23:04.757Z,136.00
2022-07-30T12:24:04.712Z,112.00
2022-07-30T12:25:04.659Z,156.00
2022-07-30T12:26:04.615Z,312.00
2022-07-30T12:27:05.113Z,296.00
2022-07-30T12:28:04.523Z,56.00
2022-07-30T12:29:04.475Z,52.00
2022-07-30T12:30:04.430Z,52.00
2022-07-30T12:31:04.475Z,40.00
2022-07-30T12:32:04.336Z,40.00
2022-07-30T12:33:04.287Z,40.00
2022-07-30T12:34:04.240Z,48.00
2022-07-30T12:35:04.270Z,36.00
2022-07-30T12:36:04.151Z,44.00
2022-07-30T12:37:04.574Z,48.00
2022-07-30T12:38:04.051Z,84.00
2022-07-30T12:39:04.011Z,92.00
2022-07-30T12:40:03.957Z,96.00
2022-07-30T12:41:03.935Z,96.00
2022-07-30T12:42:03.877Z,100.00
2022-07-30T12:43:03.817Z,68.00
2022-07-30T12:44:03.767Z,68.00
2022-07-30T12:45:03.722Z,68.00
2022-07-30T12:46:03.674Z,44.00
2022-07-30T12:47:04.829Z,40.00
2022-07-30T12:48:03.578Z,44.00
2022-07-30T12:49:21.458Z,24.00
2022-07-30T12:50:03.515Z,28.00
2022-07-30T12:51:03.435Z,44.00
2022-07-30T12:52:03.396Z,28.00
2022-07-30T12:53:03.340Z,20.00
2022-07-30T12:54:03.312Z,28.00
2022-07-30T12:55:03.245Z,36.00
2022-07-30T12:56:03.200Z,24.00
2022-07-30T12:57:03.567Z,20.00
2022-07-30T12:58:07.918Z,32.00
2022-07-30T12:59:03.056Z,36.00
2022-07-30T13:00:03.010Z,36.00
2022-07-30T13:01:02.962Z,36.00
2022-07-30T13:02:02.973Z,36.00
2022-07-30T13:03:02.867Z,32.00
2022-07-30T13:04:02.822Z,36.00
2022-07-30T13:05:11.597Z,36.00
2022-07-30T13:06:02.743Z,20.00
2022-07-30T13:07:03.093Z,36.00
2022-07-30T13:08:02.634Z,36.00
2022-07-30T13:09:02.586Z,36.00
2022-07-30T13:10:02.552Z,20.00
2022-07-30T13:11:02.492Z,28.00
2022-07-30T13:12:02.463Z,16.00
2022-07-30T13:13:02.403Z,20.00
2022-07-30T13:14:02.368Z,24.00
2022-07-30T13:15:02.308Z,32.00
2022-07-30T13:16:02.265Z,32.00
2022-07-30T13:17:02.475Z,20.00
2022-07-30T13:18:02.183Z,32.00
2022-07-30T13:19:02.115Z,36.00
2022-07-30T13:20:02.086Z,32.00
2022-07-30T13:21:02.096Z,32.00
2022-07-30T13:22:02.010Z,32.00
2022-07-30T13:23:02.249Z,32.00
2022-07-30T13:24:01.884Z,36.00
2022-07-30T13:25:01.833Z,32.00
2022-07-30T13:26:01.798Z,28.00
2022-07-30T13:27:02.070Z,28.00
2022-07-30T13:28:01.718Z,32.00
2022-07-30T13:29:02.239Z,32.00
2022-07-30T13:30:01.602Z,32.00
2022-07-30T13:31:01.553Z,32.00
2022-07-30T13:32:01.520Z,32.00
2022-07-30T13:33:01.459Z,32.00
2022-07-30T13:34:01.411Z,32.00
2022-07-30T13:35:01.939Z,28.00
2022-07-30T13:36:01.327Z,28.00
2022-07-30T13:37:01.646Z,28.00
2022-07-30T13:38:01.225Z,28.00
2022-07-30T13:39:01.180Z,28.00
2022-07-30T13:40:01.131Z,20.00
2022-07-30T13:41:02.888Z,24.00
2022-07-30T13:42:01.039Z,28.00
2022-07-30T13:43:00.993Z,28.00
2022-07-30T13:44:00.942Z,12.00
2022-07-30T13:45:00.898Z,20.00
2022-07-30T13:46:00.849Z,28.00
2022-07-30T13:47:02.020Z,28.00
2022-07-30T13:48:00.756Z,28.00
2022-07-30T13:49:00.759Z,28.00
2022-07-30T13:50:00.664Z,28.00
2022-07-30T13:51:00.618Z,12.00
2022-07-30T13:52:00.568Z,24.00
2022-07-30T13:53:02.589Z,44.00
2022-07-30T13:54:00.476Z,24.00
2022-07-30T13:55:00.435Z,40.00
2022-07-30T13:56:00.383Z,28.00
2022-07-30T13:57:00.847Z,48.00
2022-07-30T13:58:00.290Z,28.00
2022-07-30T13:59:00.244Z,44.00
2022-07-30T14:00:00.196Z,28.00
2022-07-30T14:01:00.151Z,20.00
2022-07-30T14:02:00.216Z,28.00